Abadan, Iran

10:59 PM IRDT on August 20, 2014 (GMT +0430)
Abadan | Change Station
CLOSE
Current Station
Airport
Location: Abadan,
Elevation: 10 ft
Nearby Weather Stations

Elev 10 ft 30.37 °N, 48.25 °E | Updated 29 minutes ago

Clear
Clear
97 °F
Feels Like 105 °F
N
7
Wind Variable Wind from WSW

Today
High -- | Low -- °F
--% Chance of Precip.
Yesterday
High -- | Low -- °F
Precip. -- in
6:46 AM 7:53 PM
Waning Crescent, 20% visible
Pressure 29.62 in
Visibility -9999.0 miles
Clouds
Heat Index 105 °F
Dew Point 72 °F
Humidity 44%
Rainfall 0.00 in
Snow Depth Not available.
UV Not available.
Pollen Not available.
Air Quality Not available.
Flu Activity Not available.
METAR OIAA 201800Z 24006KT CAVOK 36/22 Q1003

More Conditions Fewer Conditions

Pressure 29.62 in
Visibility -9999.0 miles
Clouds
Heat Index 105 °F
Dew Point 72 °F
Humidity 44%
Rainfall 0.00 in
Snow Depth Not available.
UV Not available.
Pollen Not available.
Air Quality Not available.
Flu Activity Not available.
METAR OIAA 201800Z 24006KT CAVOK 36/22 Q1003

More Conditions Fewer Conditions

10-Day Weather Forecast

Almanac

Astronomy

Aug. 20, 2014 Rise Set
Actual Time 6:46 AM IRDT 7:53 PM IRDT
Civil Twilight 6:21 AM IRDT 8:18 PM IRDT
Nautical Twilight 5:51 AM IRDT 8:48 PM IRDT
Astronomical Twilight 5:21 AM IRDT 9:18 PM IRDT
Moon 2:15 AM IRDT 4:13 PM IRDT
Length of Visible Light 13h 57m
Length of Day
13h 07m
Tomorrow will be 1m 40s shorter.
Waning Crescent, 20% of the Moon is Illuminated
Today
Waning Crescent
Aug 25
New
Sep 2
First Quarter
Sep 8
Full
Sep 15
Last Quarter

Today's Extremes

Country Highs Country Lows

Community

WunderPhotos

Upload Photos

1,745,704 photos uploaded!

WunderBlogs® & News

Nearby

Snow Depth

Not available.

Earthquake Activity

City Distance Mag. Time & Date
No recent earthquake activity has been reported nearby.
Minimum magnitude displayed is 2.5.

Coastal Water Temperatures

Place Temperature
No Stations Reporting

Nearby Weather Stations